sensor_id;sensor_type;location;lat;lon;timestamp;temperature;humidity
49413;DHT22;35493;50.276;9.372;2023-07-30T00:00:55;19.40;85.80
49413;DHT22;35493;50.276;9.372;2023-07-30T00:03:38;19.30;85.90
49413;DHT22;35493;50.276;9.372;2023-07-30T00:06:20;19.30;85.90
49413;DHT22;35493;50.276;9.372;2023-07-30T00:08:58;19.30;85.80
49413;DHT22;35493;50.276;9.372;2023-07-30T00:11:27;19.20;85.80
49413;DHT22;35493;50.276;9.372;2023-07-30T00:14:05;19.20;86.00
49413;DHT22;35493;50.276;9.372;2023-07-30T00:16:39;19.20;86.00
49413;DHT22;35493;50.276;9.372;2023-07-30T00:19:55;19.10;86.10
49413;DHT22;35493;50.276;9.372;2023-07-30T00:22:24;19.10;86.10
49413;DHT22;35493;50.276;9.372;2023-07-30T00:24:51;19.10;86.10
49413;DHT22;35493;50.276;9.372;2023-07-30T00:27:18;19.10;86.20
49413;DHT22;35493;50.276;9.372;2023-07-30T00:29:45;19.10;86.30
49413;DHT22;35493;50.276;9.372;2023-07-30T00:32:12;19.10;86.40
49413;DHT22;35493;50.276;9.372;2023-07-30T00:34:42;19.10;86.40
49413;DHT22;35493;50.276;9.372;2023-07-30T00:37:09;19.10;86.50
49413;DHT22;35493;50.276;9.372;2023-07-30T00:39:38;19.00;86.50
49413;DHT22;35493;50.276;9.372;2023-07-30T00:42:05;19.00;86.60
49413;DHT22;35493;50.276;9.372;2023-07-30T00:44:32;19.00;86.60
49413;DHT22;35493;50.276;9.372;2023-07-30T00:46:59;19.00;86.70
49413;DHT22;35493;50.276;9.372;2023-07-30T00:49:26;19.00;86.80
49413;DHT22;35493;50.276;9.372;2023-07-30T00:51:54;18.90;86.80
49413;DHT22;35493;50.276;9.372;2023-07-30T00:54:23;18.90;86.80
49413;DHT22;35493;50.276;9.372;2023-07-30T00:56:52;18.90;86.90
49413;DHT22;35493;50.276;9.372;2023-07-30T00:59:20;18.90;86.90
49413;DHT22;35493;50.276;9.372;2023-07-30T01:01:47;18.90;86.90
49413;DHT22;35493;50.276;9.372;2023-07-30T01:04:14;18.80;87.00
49413;DHT22;35493;50.276;9.372;2023-07-30T01:06:41;18.80;87.10
49413;DHT22;35493;50.276;9.372;2023-07-30T01:09:08;18.80;87.20
49413;DHT22;35493;50.276;9.372;2023-07-30T01:11:36;18.80;87.20
49413;DHT22;35493;50.276;9.372;2023-07-30T01:14:06;18.80;87.20
49413;DHT22;35493;50.276;9.372;2023-07-30T01:16:38;18.80;87.20
49413;DHT22;35493;50.276;9.372;2023-07-30T01:19:06;18.80;87.30
49413;DHT22;35493;50.276;9.372;2023-07-30T01:21:35;18.80;87.40
49413;DHT22;35493;50.276;9.372;2023-07-30T01:24:02;18.80;87.40
49413;DHT22;35493;50.276;9.372;2023-07-30T01:26:30;18.80;87.50
49413;DHT22;35493;50.276;9.372;2023-07-30T01:29:00;18.80;87.50
49413;DHT22;35493;50.276;9.372;2023-07-30T01:31:27;18.80;87.30
49413;DHT22;35493;50.276;9.372;2023-07-30T01:33:57;19.00;86.90
49413;DHT22;35493;50.276;9.372;2023-07-30T01:36:25;19.00;86.80
49413;DHT22;35493;50.276;9.372;2023-07-30T01:38:54;18.90;87.10
49413;DHT22;35493;50.276;9.372;2023-07-30T01:41:21;18.90;87.20
49413;DHT22;35493;50.276;9.372;2023-07-30T01:43:50;18.90;87.30
49413;DHT22;35493;50.276;9.372;2023-07-30T01:46:17;18.90;87.30
49413;DHT22;35493;50.276;9.372;2023-07-30T01:48:44;18.90;87.40
49413;DHT22;35493;50.276;9.372;2023-07-30T01:51:14;18.90;87.40
49413;DHT22;35493;50.276;9.372;2023-07-30T01:53:43;18.80;87.40
49413;DHT22;35493;50.276;9.372;2023-07-30T01:56:12;18.80;87.50
49413;DHT22;35493;50.276;9.372;2023-07-30T01:58:39;18.80;87.60
49413;DHT22;35493;50.276;9.372;2023-07-30T02:01:06;18.70;87.60
49413;DHT22;35493;50.276;9.372;2023-07-30T02:03:32;18.80;87.60
49413;DHT22;35493;50.276;9.372;2023-07-30T02:05:59;18.80;87.60
49413;DHT22;35493;50.276;9.372;2023-07-30T02:08:26;18.80;87.70
49413;DHT22;35493;50.276;9.372;2023-07-30T02:10:56;18.80;87.70
49413;DHT22;35493;50.276;9.372;2023-07-30T02:13:25;18.70;87.70
49413;DHT22;35493;50.276;9.372;2023-07-30T02:15:53;18.80;87.70
49413;DHT22;35493;50.276;9.372;2023-07-30T02:18:29;18.80;87.70
49413;DHT22;35493;50.276;9.372;2023-07-30T02:20:55;18.80;87.70
49413;DHT22;35493;50.276;9.372;2023-07-30T02:23:23;18.70;87.80
49413;DHT22;35493;50.276;9.372;2023-07-30T02:25:50;18.70;87.90
49413;DHT22;35493;50.276;9.372;2023-07-30T02:28:17;18.70;87.90
49413;DHT22;35493;50.276;9.372;2023-07-30T02:30:48;18.70;87.80
49413;DHT22;35493;50.276;9.372;2023-07-30T02:33:14;18.70;87.90
49413;DHT22;35493;50.276;9.372;2023-07-30T02:35:42;18.70;87.90
49413;DHT22;35493;50.276;9.372;2023-07-30T02:38:09;18.60;87.80
49413;DHT22;35493;50.276;9.372;2023-07-30T02:40:36;18.60;87.80
49413;DHT22;35493;50.276;9.372;2023-07-30T02:45:51;18.60;87.90
49413;DHT22;35493;50.276;9.372;2023-07-30T02:48:18;18.60;87.80
49413;DHT22;35493;50.276;9.372;2023-07-30T02:50:45;18.60;87.70
49413;DHT22;35493;50.276;9.372;2023-07-30T02:53:12;18.60;87.60
49413;DHT22;35493;50.276;9.372;2023-07-30T02:55:39;18.60;87.70
49413;DHT22;35493;50.276;9.372;2023-07-30T02:58:06;18.50;87.80
49413;DHT22;35493;50.276;9.372;2023-07-30T03:00:39;18.60;87.80
49413;DHT22;35493;50.276;9.372;2023-07-30T03:03:07;18.50;87.80
49413;DHT22;35493;50.276;9.372;2023-07-30T03:05:34;18.50;87.90
49413;DHT22;35493;50.276;9.372;2023-07-30T03:08:08;18.50;88.00
49413;DHT22;35493;50.276;9.372;2023-07-30T03:11:07;18.40;88.10
49413;DHT22;35493;50.276;9.372;2023-07-30T03:13:34;18.40;88.20
49413;DHT22;35493;50.276;9.372;2023-07-30T03:16:13;18.50;88.10
49413;DHT22;35493;50.276;9.372;2023-07-30T03:18:42;18.50;88.00
49413;DHT22;35493;50.276;9.372;2023-07-30T03:21:09;18.50;87.90
49413;DHT22;35493;50.276;9.372;2023-07-30T03:23:39;18.50;88.00
49413;DHT22;35493;50.276;9.372;2023-07-30T03:26:06;18.50;88.00
49413;DHT22;35493;50.276;9.372;2023-07-30T03:28:34;18.50;88.10
49413;DHT22;35493;50.276;9.372;2023-07-30T03:31:01;18.50;88.10
49413;DHT22;35493;50.276;9.372;2023-07-30T03:33:31;18.50;88.20
49413;DHT22;35493;50.276;9.372;2023-07-30T03:36:05;18.40;88.30
49413;DHT22;35493;50.276;9.372;2023-07-30T03:38:46;18.40;88.40
49413;DHT22;35493;50.276;9.372;2023-07-30T03:41:13;18.40;88.40
49413;DHT22;35493;50.276;9.372;2023-07-30T03:43:40;18.40;88.50
49413;DHT22;35493;50.276;9.372;2023-07-30T03:57:34;18.40;88.70
49413;DHT22;35493;50.276;9.372;2023-07-30T04:00:24;18.50;88.50
49413;DHT22;35493;50.276;9.372;2023-07-30T04:03:31;18.50;88.40
49413;DHT22;35493;50.276;9.372;2023-07-30T04:06:28;18.50;88.40
49413;DHT22;35493;50.276;9.372;2023-07-30T04:08:55;18.50;88.40
49413;DHT22;35493;50.276;9.372;2023-07-30T04:11:22;18.50;88.40
49413;DHT22;35493;50.276;9.372;2023-07-30T04:13:50;18.60;88.30
49413;DHT22;35493;50.276;9.372;2023-07-30T04:16:17;18.50;88.30
49413;DHT22;35493;50.276;9.372;2023-07-30T04:18:56;18.50;88.40
49413;DHT22;35493;50.276;9.372;2023-07-30T04:21:23;18.50;88.40
49413;DHT22;35493;50.276;9.372;2023-07-30T04:23:50;18.50;88.20
49413;DHT22;35493;50.276;9.372;2023-07-30T04:29:19;18.60;88.10
49413;DHT22;35493;50.276;9.372;2023-07-30T04:31:49;18.60;88.00
49413;DHT22;35493;50.276;9.372;2023-07-30T04:34:26;18.60;88.10
49413;DHT22;35493;50.276;9.372;2023-07-30T04:36:56;18.60;88.10
49413;DHT22;35493;50.276;9.372;2023-07-30T04:39:23;18.60;88.20
49413;DHT22;35493;50.276;9.372;2023-07-30T04:41:59;18.60;88.30
49413;DHT22;35493;50.276;9.372;2023-07-30T04:44:33;18.60;88.20
49413;DHT22;35493;50.276;9.372;2023-07-30T04:47:23;18.60;88.20
49413;DHT22;35493;50.276;9.372;2023-07-30T04:50:10;18.60;88.10
49413;DHT22;35493;50.276;9.372;2023-07-30T04:53:26;18.50;88.10
49413;DHT22;35493;50.276;9.372;2023-07-30T04:56:12;18.50;88.20
49413;DHT22;35493;50.276;9.372;2023-07-30T04:58:42;18.50;88.20
49413;DHT22;35493;50.276;9.372;2023-07-30T05:01:10;18.50;88.20
49413;DHT22;35493;50.276;9.372;2023-07-30T05:03:46;18.60;88.20
49413;DHT22;35493;50.276;9.372;2023-07-30T05:06:13;18.60;88.20
49413;DHT22;35493;50.276;9.372;2023-07-30T05:08:40;18.60;88.30
49413;DHT22;35493;50.276;9.372;2023-07-30T05:11:06;18.50;88.40
49413;DHT22;35493;50.276;9.372;2023-07-30T05:13:42;18.60;88.30
49413;DHT22;35493;50.276;9.372;2023-07-30T05:16:11;18.60;88.10
49413;DHT22;35493;50.276;9.372;2023-07-30T05:19:15;18.60;88.10
49413;DHT22;35493;50.276;9.372;2023-07-30T05:21:57;18.60;88.30
49413;DHT22;35493;50.276;9.372;2023-07-30T05:24:37;18.70;88.30
49413;DHT22;35493;50.276;9.372;2023-07-30T05:27:17;18.60;88.30
49413;DHT22;35493;50.276;9.372;2023-07-30T05:29:47;18.80;88.00
49413;DHT22;35493;50.276;9.372;2023-07-30T05:32:21;18.80;87.90
49413;DHT22;35493;50.276;9.372;2023-07-30T05:35:00;18.80;87.70
49413;DHT22;35493;50.276;9.372;2023-07-30T05:37:27;18.90;87.70
49413;DHT22;35493;50.276;9.372;2023-07-30T05:39:54;18.90;88.00
49413;DHT22;35493;50.276;9.372;2023-07-30T05:42:27;18.90;88.30
49413;DHT22;35493;50.276;9.372;2023-07-30T05:45:23;18.90;88.30
49413;DHT22;35493;50.276;9.372;2023-07-30T05:48:50;18.90;88.30
49413;DHT22;35493;50.276;9.372;2023-07-30T06:01:48;19.20;88.00
49413;DHT22;35493;50.276;9.372;2023-07-30T06:04:44;19.20;87.80
49413;DHT22;35493;50.276;9.372;2023-07-30T06:07:40;19.20;87.80
49413;DHT22;35493;50.276;9.372;2023-07-30T06:10:23;19.10;87.70
49413;DHT22;35493;50.276;9.372;2023-07-30T06:13:29;19.10;87.60
49413;DHT22;35493;50.276;9.372;2023-07-30T06:16:31;19.10;87.70
49413;DHT22;35493;50.276;9.372;2023-07-30T06:19:37;19.10;87.30
49413;DHT22;35493;50.276;9.372;2023-07-30T06:22:42;19.10;87.10
49413;DHT22;35493;50.276;9.372;2023-07-30T06:25:19;19.10;87.00
49413;DHT22;35493;50.276;9.372;2023-07-30T06:28:24;19.10;86.90
49413;DHT22;35493;50.276;9.372;2023-07-30T06:38:01;19.30;86.30
49413;DHT22;35493;50.276;9.372;2023-07-30T06:41:15;19.40;86.30
49413;DHT22;35493;50.276;9.372;2023-07-30T06:44:14;19.50;86.10
49413;DHT22;35493;50.276;9.372;2023-07-30T06:47:40;19.60;86.00
49413;DHT22;35493;50.276;9.372;2023-07-30T06:50:59;19.60;85.80
49413;DHT22;35493;50.276;9.372;2023-07-30T06:54:25;19.80;85.20
49413;DHT22;35493;50.276;9.372;2023-07-30T06:57:33;20.00;85.10
49413;DHT22;35493;50.276;9.372;2023-07-30T07:00:24;20.10;84.60
49413;DHT22;35493;50.276;9.372;2023-07-30T07:03:50;20.30;84.10
49413;DHT22;35493;50.276;9.372;2023-07-30T07:13:39;20.30;83.70
49413;DHT22;35493;50.276;9.372;2023-07-30T07:16:58;20.40;83.70
49413;DHT22;35493;50.276;9.372;2023-07-30T07:20:12;20.50;83.00
49413;DHT22;35493;50.276;9.372;2023-07-30T07:26:46;20.50;82.30
49413;DHT22;35493;50.276;9.372;2023-07-30T07:34:05;20.60;82.00
49413;DHT22;35493;50.276;9.372;2023-07-30T07:40:58;20.80;81.30
49413;DHT22;35493;50.276;9.372;2023-07-30T07:51:04;21.10;80.70
49413;DHT22;35493;50.276;9.372;2023-07-30T07:57:23;21.10;79.80
49413;DHT22;35493;50.276;9.372;2023-07-30T08:00:41;21.10;79.80
49413;DHT22;35493;50.276;9.372;2023-07-30T08:03:40;21.10;79.50
49413;DHT22;35493;50.276;9.372;2023-07-30T08:07:03;21.10;79.20
49413;DHT22;35493;50.276;9.372;2023-07-30T08:10:20;21.10;78.80
49413;DHT22;35493;50.276;9.372;2023-07-30T08:13:10;21.30;78.30
49413;DHT22;35493;50.276;9.372;2023-07-30T08:16:08;21.50;78.30
49413;DHT22;35493;50.276;9.372;2023-07-30T08:43:52;21.30;77.70
49413;DHT22;35493;50.276;9.372;2023-07-30T08:50:31;21.20;78.10
49413;DHT22;35493;50.276;9.372;2023-07-30T09:11:56;21.20;79.80
49413;DHT22;35493;50.276;9.372;2023-07-30T09:14:57;21.30;79.60
49413;DHT22;35493;50.276;9.372;2023-07-30T09:45:08;22.60;76.20
49413;DHT22;35493;50.276;9.372;2023-07-30T09:48:21;22.60;76.00
49413;DHT22;35493;50.276;9.372;2023-07-30T09:51:34;22.60;75.10
49413;DHT22;35493;50.276;9.372;2023-07-30T09:58:27;22.60;74.20
49413;DHT22;35493;50.276;9.372;2023-07-30T10:06:02;22.70;72.90
49413;DHT22;35493;50.276;9.372;2023-07-30T10:29:49;23.00;70.50
49413;DHT22;35493;50.276;9.372;2023-07-30T10:33:11;23.00;70.30
49413;DHT22;35493;50.276;9.372;2023-07-30T10:36:18;22.90;70.60
49413;DHT22;35493;50.276;9.372;2023-07-30T10:39:56;22.80;70.70
49413;DHT22;35493;50.276;9.372;2023-07-30T10:56:51;21.10;77.60
49413;DHT22;35493;50.276;9.372;2023-07-30T11:10:47;20.70;77.80
49413;DHT22;35493;50.276;9.372;2023-07-30T11:17:49;20.80;78.00
49413;DHT22;35493;50.276;9.372;2023-07-30T11:24:34;20.90;78.80
49413;DHT22;35493;50.276;9.372;2023-07-30T11:31:41;20.90;78.70
49413;DHT22;35493;50.276;9.372;2023-07-30T11:38:51;21.10;78.60
49413;DHT22;35493;50.276;9.372;2023-07-30T12:10:07;21.30;76.00
49413;DHT22;35493;50.276;9.372;2023-07-30T12:16:58;21.20;76.30
49413;DHT22;35493;50.276;9.372;2023-07-30T12:20:04;21.20;77.00
49413;DHT22;35493;50.276;9.372;2023-07-30T12:26:38;21.50;76.20
49413;DHT22;35493;50.276;9.372;2023-07-30T12:44:03;21.80;74.90
49413;DHT22;35493;50.276;9.372;2023-07-30T12:47:38;21.90;74.20
49413;DHT22;35493;50.276;9.372;2023-07-30T13:00:41;22.40;72.80
49413;DHT22;35493;50.276;9.372;2023-07-30T13:10:39;22.00;71.30
49413;DHT22;35493;50.276;9.372;2023-07-30T13:20:35;21.90;71.80
49413;DHT22;35493;50.276;9.372;2023-07-30T13:27:24;21.90;69.20
49413;DHT22;35493;50.276;9.372;2023-07-30T13:41:05;21.60;66.80
49413;DHT22;35493;50.276;9.372;2023-07-30T13:51:20;21.90;66.90
49413;DHT22;35493;50.276;9.372;2023-07-30T14:05:44;22.00;67.80
49413;DHT22;35493;50.276;9.372;2023-07-30T14:14:52;22.10;65.20
49413;DHT22;35493;50.276;9.372;2023-07-30T14:17:19;22.10;65.50
49413;DHT22;35493;50.276;9.372;2023-07-30T14:19:46;22.10;65.30
49413;DHT22;35493;50.276;9.372;2023-07-30T14:22:15;22.10;64.90
49413;DHT22;35493;50.276;9.372;2023-07-30T14:24:42;22.20;64.00
49413;DHT22;35493;50.276;9.372;2023-07-30T14:27:10;22.20;64.20
49413;DHT22;35493;50.276;9.372;2023-07-30T14:29:37;22.20;63.50
49413;DHT22;35493;50.276;9.372;2023-07-30T14:32:04;22.10;63.90
49413;DHT22;35493;50.276;9.372;2023-07-30T14:34:32;22.10;63.70
49413;DHT22;35493;50.276;9.372;2023-07-30T14:36:59;22.10;62.60
49413;DHT22;35493;50.276;9.372;2023-07-30T14:39:29;22.10;62.80
49413;DHT22;35493;50.276;9.372;2023-07-30T14:41:56;22.10;61.60
49413;DHT22;35493;50.276;9.372;2023-07-30T14:44:23;22.10;61.40
49413;DHT22;35493;50.276;9.372;2023-07-30T14:46:50;22.10;61.00
49413;DHT22;35493;50.276;9.372;2023-07-30T14:49:18;22.10;61.50
49413;DHT22;35493;50.276;9.372;2023-07-30T14:51:53;22.20;60.80
49413;DHT22;35493;50.276;9.372;2023-07-30T14:54:20;22.30;60.20
49413;DHT22;35493;50.276;9.372;2023-07-30T14:56:49;22.30;60.10
49413;DHT22;35493;50.276;9.372;2023-07-30T14:59:16;22.20;59.90
49413;DHT22;35493;50.276;9.372;2023-07-30T15:01:43;22.20;60.10
49413;DHT22;35493;50.276;9.372;2023-07-30T15:04:10;22.20;59.50
49413;DHT22;35493;50.276;9.372;2023-07-30T15:06:37;22.10;60.00
49413;DHT22;35493;50.276;9.372;2023-07-30T15:09:05;22.20;59.40
49413;DHT22;35493;50.276;9.372;2023-07-30T15:11:32;22.20;59.70
49413;DHT22;35493;50.276;9.372;2023-07-30T15:14:00;22.20;58.30
49413;DHT22;35493;50.276;9.372;2023-07-30T15:16:27;22.20;58.80
49413;DHT22;35493;50.276;9.372;2023-07-30T15:18:54;22.20;58.30
49413;DHT22;35493;50.276;9.372;2023-07-30T15:21:22;22.20;58.60
49413;DHT22;35493;50.276;9.372;2023-07-30T15:23:49;22.20;57.70
49413;DHT22;35493;50.276;9.372;2023-07-30T15:26:36;22.20;57.90
49413;DHT22;35493;50.276;9.372;2023-07-30T15:29:10;22.10;57.70
49413;DHT22;35493;50.276;9.372;2023-07-30T15:31:39;22.10;58.40
49413;DHT22;35493;50.276;9.372;2023-07-30T15:34:06;22.10;58.70
49413;DHT22;35493;50.276;9.372;2023-07-30T15:36:33;22.10;58.20
49413;DHT22;35493;50.276;9.372;2023-07-30T15:39:00;22.10;58.20
49413;DHT22;35493;50.276;9.372;2023-07-30T15:41:27;22.00;58.40
49413;DHT22;35493;50.276;9.372;2023-07-30T15:43:54;21.90;58.60
49413;DHT22;35493;50.276;9.372;2023-07-30T15:46:23;21.80;59.40
49413;DHT22;35493;50.276;9.372;2023-07-30T15:48:50;21.90;59.70
49413;DHT22;35493;50.276;9.372;2023-07-30T15:51:17;21.90;59.00
49413;DHT22;35493;50.276;9.372;2023-07-30T15:53:45;21.90;59.40
49413;DHT22;35493;50.276;9.372;2023-07-30T15:56:12;22.00;59.10
49413;DHT22;35493;50.276;9.372;2023-07-30T15:58:39;22.00;59.40
49413;DHT22;35493;50.276;9.372;2023-07-30T16:01:06;22.00;59.50
49413;DHT22;35493;50.276;9.372;2023-07-30T16:03:37;22.10;59.70
49413;DHT22;35493;50.276;9.372;2023-07-30T16:06:04;22.10;59.20
49413;DHT22;35493;50.276;9.372;2023-07-30T16:08:32;22.10;59.20
49413;DHT22;35493;50.276;9.372;2023-07-30T16:11:00;22.10;59.10
49413;DHT22;35493;50.276;9.372;2023-07-30T16:13:27;22.10;58.60
49413;DHT22;35493;50.276;9.372;2023-07-30T16:15:54;22.10;58.80
49413;DHT22;35493;50.276;9.372;2023-07-30T16:18:22;22.10;58.70
49413;DHT22;35493;50.276;9.372;2023-07-30T16:21:01;22.00;58.90
49413;DHT22;35493;50.276;9.372;2023-07-30T16:23:29;22.00;58.30
49413;DHT22;35493;50.276;9.372;2023-07-30T16:25:56;22.00;57.70
49413;DHT22;35493;50.276;9.372;2023-07-30T16:28:23;22.00;58.40
49413;DHT22;35493;50.276;9.372;2023-07-30T16:30:51;21.90;58.00
49413;DHT22;35493;50.276;9.372;2023-07-30T16:33:18;21.90;57.90
49413;DHT22;35493;50.276;9.372;2023-07-30T16:35:46;22.00;58.50
49413;DHT22;35493;50.276;9.372;2023-07-30T16:38:15;22.00;58.80
49413;DHT22;35493;50.276;9.372;2023-07-30T16:40:42;22.00;58.60
49413;DHT22;35493;50.276;9.372;2023-07-30T16:43:09;22.00;57.70
49413;DHT22;35493;50.276;9.372;2023-07-30T16:45:36;21.90;57.10
49413;DHT22;35493;50.276;9.372;2023-07-30T16:48:04;21.80;58.30
49413;DHT22;35493;50.276;9.372;2023-07-30T16:50:31;21.80;58.10
49413;DHT22;35493;50.276;9.372;2023-07-30T16:52:58;21.80;59.10
49413;DHT22;35493;50.276;9.372;2023-07-30T16:55:30;21.70;59.00
49413;DHT22;35493;50.276;9.372;2023-07-30T16:57:58;21.70;58.20
49413;DHT22;35493;50.276;9.372;2023-07-30T17:00:27;21.70;58.00
49413;DHT22;35493;50.276;9.372;2023-07-30T17:03:03;21.80;57.80
49413;DHT22;35493;50.276;9.372;2023-07-30T17:05:32;21.70;57.80
49413;DHT22;35493;50.276;9.372;2023-07-30T17:07:59;21.60;57.70
49413;DHT22;35493;50.276;9.372;2023-07-30T17:10:26;21.60;57.20
49413;DHT22;35493;50.276;9.372;2023-07-30T17:12:55;21.60;57.30
49413;DHT22;35493;50.276;9.372;2023-07-30T17:15:24;21.50;56.80
49413;DHT22;35493;50.276;9.372;2023-07-30T17:17:52;21.50;58.40
49413;DHT22;35493;50.276;9.372;2023-07-30T17:20:19;21.50;58.60
49413;DHT22;35493;50.276;9.372;2023-07-30T17:22:46;21.60;57.70
49413;DHT22;35493;50.276;9.372;2023-07-30T17:25:13;21.50;57.50
49413;DHT22;35493;50.276;9.372;2023-07-30T17:27:40;21.50;57.60
49413;DHT22;35493;50.276;9.372;2023-07-30T17:30:09;21.50;57.70
49413;DHT22;35493;50.276;9.372;2023-07-30T17:32:36;21.60;57.90
49413;DHT22;35493;50.276;9.372;2023-07-30T17:35:04;21.60;58.00
49413;DHT22;35493;50.276;9.372;2023-07-30T17:37:32;21.50;57.90
49413;DHT22;35493;50.276;9.372;2023-07-30T17:39:59;21.50;57.60
49413;DHT22;35493;50.276;9.372;2023-07-30T17:42:40;21.40;59.10
49413;DHT22;35493;50.276;9.372;2023-07-30T17:45:11;21.30;58.00
49413;DHT22;35493;50.276;9.372;2023-07-30T17:47:38;21.30;58.00
49413;DHT22;35493;50.276;9.372;2023-07-30T17:50:05;21.30;59.10
49413;DHT22;35493;50.276;9.372;2023-07-30T17:52:32;21.30;59.10
49413;DHT22;35493;50.276;9.372;2023-07-30T17:54:59;21.20;58.60
49413;DHT22;35493;50.276;9.372;2023-07-30T17:57:27;21.20;59.40
49413;DHT22;35493;50.276;9.372;2023-07-30T17:59:54;21.10;59.30
49413;DHT22;35493;50.276;9.372;2023-07-30T18:02:22;21.10;59.70
49413;DHT22;35493;50.276;9.372;2023-07-30T18:04:49;21.10;59.80
49413;DHT22;35493;50.276;9.372;2023-07-30T18:08:38;21.00;59.50
49413;DHT22;35493;50.276;9.372;2023-07-30T18:10:20;20.90;60.20
49413;DHT22;35493;50.276;9.372;2023-07-30T18:12:47;20.90;60.00
49413;DHT22;35493;50.276;9.372;2023-07-30T18:15:14;20.90;60.50
49413;DHT22;35493;50.276;9.372;2023-07-30T18:17:43;20.90;60.00
49413;DHT22;35493;50.276;9.372;2023-07-30T18:20:10;20.90;59.60
49413;DHT22;35493;50.276;9.372;2023-07-30T18:22:38;20.80;59.70
49413;DHT22;35493;50.276;9.372;2023-07-30T18:25:05;20.70;60.10
49413;DHT22;35493;50.276;9.372;2023-07-30T18:27:33;20.70;60.70
49413;DHT22;35493;50.276;9.372;2023-07-30T18:30:00;20.60;60.40
49413;DHT22;35493;50.276;9.372;2023-07-30T18:32:27;20.60;61.10
49413;DHT22;35493;50.276;9.372;2023-07-30T18:34:56;20.50;61.90
49413;DHT22;35493;50.276;9.372;2023-07-30T18:37:23;20.50;61.30
49413;DHT22;35493;50.276;9.372;2023-07-30T18:39:50;20.50;61.20
49413;DHT22;35493;50.276;9.372;2023-07-30T18:42:21;20.40;61.40
49413;DHT22;35493;50.276;9.372;2023-07-30T18:44:54;20.30;62.00
49413;DHT22;35493;50.276;9.372;2023-07-30T18:47:22;20.30;61.70
49413;DHT22;35493;50.276;9.372;2023-07-30T18:49:50;20.30;62.10
49413;DHT22;35493;50.276;9.372;2023-07-30T18:52:19;20.20;62.70
49413;DHT22;35493;50.276;9.372;2023-07-30T18:54:47;20.20;62.30
49413;DHT22;35493;50.276;9.372;2023-07-30T18:57:28;20.20;62.90
49413;DHT22;35493;50.276;9.372;2023-07-30T18:59:58;20.10;62.90
49413;DHT22;35493;50.276;9.372;2023-07-30T19:05:36;20.10;62.70
49413;DHT22;35493;50.276;9.372;2023-07-30T19:08:05;19.90;63.30
49413;DHT22;35493;50.276;9.372;2023-07-30T19:11:13;19.90;63.60
49413;DHT22;35493;50.276;9.372;2023-07-30T19:13:23;20.00;64.00
49413;DHT22;35493;50.276;9.372;2023-07-30T19:15:51;19.90;65.10
49413;DHT22;35493;50.276;9.372;2023-07-30T19:18:33;19.70;65.50
49413;DHT22;35493;50.276;9.372;2023-07-30T19:21:00;19.70;66.60
49413;DHT22;35493;50.276;9.372;2023-07-30T19:23:31;19.60;67.00
49413;DHT22;35493;50.276;9.372;2023-07-30T19:25:59;19.60;67.30
49413;DHT22;35493;50.276;9.372;2023-07-30T19:28:26;19.50;67.60
49413;DHT22;35493;50.276;9.372;2023-07-30T19:30:53;19.40;67.80
49413;DHT22;35493;50.276;9.372;2023-07-30T19:33:21;19.40;67.90
49413;DHT22;35493;50.276;9.372;2023-07-30T19:35:48;19.40;68.30
49413;DHT22;35493;50.276;9.372;2023-07-30T19:38:16;19.40;68.50
49413;DHT22;35493;50.276;9.372;2023-07-30T19:40:45;19.40;68.00
49413;DHT22;35493;50.276;9.372;2023-07-30T19:43:16;19.30;68.30
49413;DHT22;35493;50.276;9.372;2023-07-30T19:45:47;19.30;68.60
49413;DHT22;35493;50.276;9.372;2023-07-30T19:48:14;19.20;68.90
49413;DHT22;35493;50.276;9.372;2023-07-30T19:50:41;19.20;69.10
49413;DHT22;35493;50.276;9.372;2023-07-30T19:53:09;19.20;69.20
49413;DHT22;35493;50.276;9.372;2023-07-30T19:55:36;19.20;69.50
49413;DHT22;35493;50.276;9.372;2023-07-30T20:01:06;19.10;70.00
49413;DHT22;35493;50.276;9.372;2023-07-30T20:03:33;19.10;70.00
49413;DHT22;35493;50.276;9.372;2023-07-30T20:06:00;19.10;70.10
49413;DHT22;35493;50.276;9.372;2023-07-30T20:08:29;19.10;70.10
49413;DHT22;35493;50.276;9.372;2023-07-30T20:10:56;19.10;70.00
49413;DHT22;35493;50.276;9.372;2023-07-30T20:13:25;19.10;69.90
49413;DHT22;35493;50.276;9.372;2023-07-30T20:15:53;19.10;69.70
49413;DHT22;35493;50.276;9.372;2023-07-30T20:18:22;19.10;69.80
49413;DHT22;35493;50.276;9.372;2023-07-30T20:20:50;19.20;70.00
49413;DHT22;35493;50.276;9.372;2023-07-30T20:23:17;19.10;69.70
49413;DHT22;35493;50.276;9.372;2023-07-30T20:25:47;19.20;69.50
49413;DHT22;35493;50.276;9.372;2023-07-30T20:28:14;19.10;69.80
49413;DHT22;35493;50.276;9.372;2023-07-30T20:30:42;19.10;70.10
49413;DHT22;35493;50.276;9.372;2023-07-30T20:33:17;19.10;70.30
49413;DHT22;35493;50.276;9.372;2023-07-30T20:35:54;19.10;70.80
49413;DHT22;35493;50.276;9.372;2023-07-30T20:38:30;19.10;71.00
49413;DHT22;35493;50.276;9.372;2023-07-30T20:41:05;19.00;71.20
49413;DHT22;35493;50.276;9.372;2023-07-30T20:43:47;19.10;71.10
49413;DHT22;35493;50.276;9.372;2023-07-30T20:46:29;19.00;70.70
49413;DHT22;35493;50.276;9.372;2023-07-30T20:48:56;19.00;71.20
49413;DHT22;35493;50.276;9.372;2023-07-30T20:51:25;19.00;71.00
49413;DHT22;35493;50.276;9.372;2023-07-30T20:53:52;19.00;71.10
49413;DHT22;35493;50.276;9.372;2023-07-30T20:56:19;19.00;71.00
49413;DHT22;35493;50.276;9.372;2023-07-30T20:58:47;19.00;70.80
49413;DHT22;35493;50.276;9.372;2023-07-30T21:01:14;19.00;70.70
49413;DHT22;35493;50.276;9.372;2023-07-30T21:03:41;19.00;70.80
49413;DHT22;35493;50.276;9.372;2023-07-30T21:06:08;19.00;70.60
49413;DHT22;35493;50.276;9.372;2023-07-30T21:08:38;19.00;70.20
49413;DHT22;35493;50.276;9.372;2023-07-30T21:11:05;18.90;70.30
49413;DHT22;35493;50.276;9.372;2023-07-30T21:13:34;19.00;70.60
49413;DHT22;35493;50.276;9.372;2023-07-30T21:16:02;19.00;70.00
49413;DHT22;35493;50.276;9.372;2023-07-30T21:18:30;19.00;69.40
49413;DHT22;35493;50.276;9.372;2023-07-30T21:20:57;19.00;68.80
49413;DHT22;35493;50.276;9.372;2023-07-30T21:23:25;19.00;68.50
49413;DHT22;35493;50.276;9.372;2023-07-30T21:25:55;19.00;68.40
49413;DHT22;35493;50.276;9.372;2023-07-30T21:28:22;19.10;68.20
49413;DHT22;35493;50.276;9.372;2023-07-30T21:30:59;19.00;67.90
49413;DHT22;35493;50.276;9.372;2023-07-30T21:33:27;19.10;67.60
49413;DHT22;35493;50.276;9.372;2023-07-30T21:35:54;19.00;67.60
49413;DHT22;35493;50.276;9.372;2023-07-30T21:38:22;19.00;67.40
49413;DHT22;35493;50.276;9.372;2023-07-30T21:40:49;19.00;67.20
49413;DHT22;35493;50.276;9.372;2023-07-30T21:43:19;19.10;67.00
49413;DHT22;35493;50.276;9.372;2023-07-30T21:45:51;19.10;67.00
49413;DHT22;35493;50.276;9.372;2023-07-30T21:48:19;19.10;67.10
49413;DHT22;35493;50.276;9.372;2023-07-30T21:50:56;19.00;67.20
49413;DHT22;35493;50.276;9.372;2023-07-30T21:53:23;19.00;67.10